Time;durP1;ratioP1;P1;durP2;ratioP2;P2;SDS_P1;SDS_P2;PMS_P1;PMS_P2;Temp;Humidity;BMP_temperature;BMP_pressure;BME280_temperature;BME280_humidity;BME280_pressure;Samples;Min_cycle;Max_cycle;Signal;HPM_P1;HPM_P2
2022/01/16 00:00:18;;;;;;;;;24.50;21.75;;;;;21.01;29.98;102101.53;4994507;28;45461;-49
2022/01/16 00:05:27;;;;;;;;;21.25;18.50;;;;;21.03;29.88;102084.78;4994331;28;45456;-54
2022/01/16 00:07:53;;;;;;;;;21.25;21.00;;;;;21.04;29.96;102074.22;4994308;28;45419;-58
2022/01/16 00:10:20;;;;;;;;;25.00;22.75;;;;;21.05;30.24;102075.94;4994380;27;45737;-54
2022/01/16 00:12:49;;;;;;;;;22.50;19.00;;;;;21.04;29.77;102071.56;4993968;28;45537;-55
2022/01/16 00:15:20;;;;;;;;;22.25;20.25;;;;;21.05;29.70;102075.94;4976512;28;45352;-59
2022/01/16 00:20:30;;;;;;;;;25.50;22.50;;;;;21.02;30.08;102078.69;4994477;28;45182;-59
2022/01/16 00:22:56;;;;;;;;;19.50;17.50;;;;;21.04;29.99;102073.34;4994253;28;46092;-57
2022/01/16 00:25:22;;;;;;;;;21.25;19.50;;;;;21.03;29.88;102088.31;4993981;28;45894;-59
2022/01/16 00:27:48;;;;;;;;;20.50;18.25;;;;;21.01;29.69;102101.53;4994127;28;45224;-57
2022/01/16 00:30:14;;;;;;;;;23.25;18.75;;;;;21.02;30.06;102118.22;4994166;28;45537;-54
2022/01/16 00:32:40;;;;;;;;;18.50;18.00;;;;;20.99;29.93;102129.75;4993739;28;46397;-56
2022/01/16 00:35:06;;;;;;;;;20.75;19.75;;;;;20.99;29.70;102137.66;4994101;28;45389;-52
2022/01/16 00:37:31;;;;;;;;;21.75;21.00;;;;;20.97;29.65;102133.31;4993950;28;45249;-51
2022/01/16 00:39:57;;;;;;;;;25.75;23.25;;;;;20.98;29.86;102121.88;4976791;28;45303;-56
2022/01/16 00:42:22;;;;;;;;;23.00;21.00;;;;;20.98;29.90;102096.38;4993716;28;45322;-59
2022/01/16 00:44:47;;;;;;;;;26.50;23.75;;;;;20.96;29.78;102095.59;4993404;28;45291;-56
2022/01/16 00:47:13;;;;;;;;;22.00;20.25;;;;;20.94;29.82;102094.78;4992685;28;45383;-56
2022/01/16 00:49:39;;;;;;;;;21.50;20.00;;;;;20.93;29.86;102098.31;4976210;28;45521;-55
2022/01/16 00:52:09;;;;;;;;;22.75;21.75;;;;;20.93;29.35;102110.66;4993377;28;45371;-56
2022/01/16 00:54:36;;;;;;;;;23.50;20.00;;;;;20.92;29.32;102111.56;4975821;28;45979;-50
2022/01/16 00:57:01;;;;;;;;;22.25;21.00;;;;;20.91;29.84;102125.66;4993876;28;45322;-55
2022/01/16 00:59:26;;;;;;;;;24.25;22.00;;;;;20.88;29.51;102110.81;4993832;28;45403;-53
2022/01/16 01:01:52;;;;;;;;;22.00;20.25;;;;;20.88;29.58;102157.38;4993275;28;46405;-54
2022/01/16 01:04:17;;;;;;;;;19.50;17.00;;;;;20.86;29.42;102165.34;4993147;28;45336;-57
2022/01/16 01:06:42;;;;;;;;;22.00;19.00;;;;;20.85;29.80;102163.63;4993501;28;45578;-50
2022/01/16 01:09:08;;;;;;;;;24.25;19.00;;;;;20.84;29.82;102169.81;4993495;28;45592;-55
2022/01/16 01:11:34;;;;;;;;;25.50;21.50;;;;;20.81;29.81;102162.00;4993216;27;46299;-52
2022/01/16 01:16:49;;;;;;;;;21.00;20.00;;;;;20.78;29.69;102156.88;4993700;28;45457;-50
2022/01/16 01:19:15;;;;;;;;;27.00;22.00;;;;;20.77;29.65;102173.59;4975782;28;45480;-57
2022/01/16 01:21:40;;;;;;;;;22.25;20.00;;;;;20.75;29.38;102125.34;4993063;27;45481;-54
2022/01/16 01:24:06;;;;;;;;;21.50;18.75;;;;;20.73;29.78;102087.63;4993005;27;45355;-49
2022/01/16 01:26:37;;;;;;;;;21.00;19.50;;;;;20.71;29.54;102074.53;4993385;27;45331;-48
2022/01/16 01:29:03;;;;;;;;;22.25;20.50;;;;;20.69;29.71;102068.44;4993472;28;45485;-54
2022/01/16 01:31:30;;;;;;;;;23.75;22.25;;;;;20.68;29.53;102056.19;4993391;28;46562;-48
2022/01/16 01:33:55;;;;;;;;;23.75;22.00;;;;;20.66;29.31;102058.88;4959283;28;45437;-55
2022/01/16 01:36:21;;;;;;;;;21.75;21.00;;;;;20.64;29.78;102078.28;4993060;28;45363;-56
2022/01/16 01:38:46;;;;;;;;;23.50;20.00;;;;;20.64;29.86;102105.50;4993100;28;45606;-49
2022/01/16 01:41:12;;;;;;;;;21.00;19.25;;;;;20.62;29.43;102114.34;4992606;28;45439;-51
2022/01/16 01:51:44;;;;;;;;;24.50;18.25;;;;;20.61;29.82;102157.44;4992664;28;45883;-49
2022/01/16 01:54:10;;;;;;;;;24.00;20.75;;;;;20.61;30.12;102171.44;4992756;28;45363;-57
2022/01/16 01:56:37;;;;;;;;;19.00;18.00;;;;;20.64;29.65;102170.47;4992832;28;45277;-56
2022/01/16 01:59:03;;;;;;;;;18.25;18.25;;;;;20.66;29.87;102173.91;4994690;28;45166;-57
2022/01/16 02:01:30;;;;;;;;;23.25;19.75;;;;;20.68;29.91;102172.94;4995781;27;45501;-53
2022/01/16 02:03:56;;;;;;;;;23.00;18.50;;;;;20.72;29.56;102188.66;4995757;28;45354;-56
2022/01/16 02:06:27;;;;;;;;;20.25;19.00;;;;;20.75;29.40;102199.97;4995860;28;45410;-52
2022/01/16 02:08:55;;;;;;;;;21.00;18.25;;;;;20.76;29.37;102220.13;4996047;27;45431;-50
2022/01/16 02:11:24;;;;;;;;;22.75;19.25;;;;;20.80;29.75;102218.25;4995674;28;46928;-49
2022/01/16 02:13:57;;;;;;;;;21.50;18.50;;;;;20.82;29.54;102213.78;4995702;28;45331;-50
2022/01/16 02:33:24;;;;;;;;;25.25;21.25;;;;;20.97;29.29;102215.03;4995181;28;45379;-57
2022/01/16 02:35:53;;;;;;;;;23.50;21.00;;;;;20.98;29.55;102206.22;4995184;28;45763;-53
2022/01/16 02:38:20;;;;;;;;;22.75;20.00;;;;;21.00;29.52;102207.88;4995351;28;45240;-59
2022/01/16 02:41:01;;;;;;;;;22.00;20.25;;;;;21.02;29.31;102194.66;4995405;28;45537;-60
2022/01/16 02:43:34;;;;;;;;;21.00;19.25;;;;;21.03;29.63;102177.06;4995091;28;46409;-54
2022/01/16 02:48:40;;;;;;;;;21.00;19.25;;;;;21.05;29.37;102185.78;4995156;28;45337;-58
2022/01/16 02:51:06;;;;;;;;;22.50;20.25;;;;;21.06;28.98;102182.22;4995655;28;45509;-56
2022/01/16 02:53:31;;;;;;;;;22.75;18.25;;;;;21.05;29.03;102180.50;4994918;28;45335;-59
2022/01/16 02:55:57;;;;;;;;;20.00;19.75;;;;;21.04;28.99;102173.50;4995034;27;45349;-60
2022/01/16 02:58:22;;;;;;;;;21.75;19.00;;;;;21.04;29.16;102168.22;4995060;28;45325;-56
2022/01/16 03:00:47;;;;;;;;;22.25;19.25;;;;;21.04;29.20;102162.97;4995312;27;45788;-60
2022/01/16 03:03:13;;;;;;;;;26.00;20.50;;;;;21.04;28.96;102162.97;4994862;27;45629;-53
2022/01/16 03:05:38;;;;;;;;;28.25;23.00;;;;;21.03;28.82;102163.88;4994818;27;45397;-51
2022/01/16 03:08:04;;;;;;;;;24.00;21.25;;;;;21.04;29.27;102158.56;4995471;28;45390;-58
2022/01/16 03:12:55;;;;;;;;;24.25;18.75;;;;;21.03;28.67;102134.88;4994663;27;45965;-55
2022/01/16 03:15:21;;;;;;;;;21.00;20.00;;;;;21.01;28.94;102148.13;4994817;28;45264;-54
2022/01/16 03:23:18;;;;;;;;;21.75;19.75;;;;;20.94;29.20;102136.94;4994568;28;45319;-53
2022/01/16 03:25:44;;;;;;;;;20.75;20.50;;;;;20.96;28.81;102144.78;4994676;27;45761;-58
2022/01/16 03:28:09;;;;;;;;;19.75;17.25;;;;;20.95;28.50;102143.94;4994876;28;45359;-54
2022/01/16 03:30:35;;;;;;;;;22.00;19.75;;;;;20.94;28.59;102144.00;4995301;28;45335;-51
2022/01/16 03:33:01;;;;;;;;;23.25;20.75;;;;;20.94;28.71;102154.53;4994344;28;47967;-59
2022/01/16 03:35:26;;;;;;;;;24.00;21.50;;;;;20.92;29.16;102154.59;4994627;28;45341;-51
2022/01/16 03:37:51;;;;;;;;;18.00;17.00;;;;;20.91;29.17;102162.56;4994697;28;45422;-50
2022/01/16 03:40:20;;;;;;;;;25.33;21.00;;;;;20.89;28.72;102159.94;4994791;28;45528;-53
2022/01/16 03:42:46;;;;;;;;;22.75;19.75;;;;;20.88;29.10;102170.56;4994384;27;46964;-50
2022/01/16 03:45:11;;;;;;;;;24.00;21.25;;;;;20.85;28.89;102168.91;4994596;28;45433;-51
2022/01/16 03:47:37;;;;;;;;;25.00;17.25;;;;;20.84;29.14;102165.38;4994902;27;45308;-50
2022/01/16 03:50:04;;;;;;;;;25.75;20.25;;;;;20.83;29.12;102149.66;4994818;28;45618;-59
2022/01/16 03:52:29;;;;;;;;;22.25;19.50;;;;;20.81;28.85;102152.34;4994177;28;45394;-59
2022/01/16 03:54:54;;;;;;;;;28.00;21.75;;;;;20.80;28.67;102155.00;4994460;28;45264;-60
2022/01/16 03:57:20;;;;;;;;;24.00;21.25;;;;;20.77;29.17;102150.72;4976801;28;45301;-52
2022/01/16 03:59:46;;;;;;;;;27.00;24.00;;;;;20.76;28.71;102164.81;4994552;27;45407;-53
2022/01/16 04:02:11;;;;;;;;;27.25;21.50;;;;;20.75;29.20;102160.44;4994140;28;46727;-52
2022/01/16 04:04:37;;;;;;;;;23.25;23.00;;;;;20.73;28.80;102158.75;4994432;28;45470;-55
2022/01/16 04:07:02;;;;;;;;;22.50;21.75;;;;;20.72;28.69;102179.00;4994215;28;45942;-54
2022/01/16 04:09:28;;;;;;;;;26.25;22.75;;;;;20.69;28.97;102169.41;4994344;28;45479;-56
2022/01/16 04:11:56;;;;;;;;;26.00;21.00;;;;;20.68;28.88;102174.72;4994061;28;45649;-55
2022/01/16 04:17:09;;;;;;;;;25.50;20.25;;;;;20.64;29.21;102175.75;4994581;28;45237;-54
2022/01/16 04:19:35;;;;;;;;;26.75;21.25;;;;;20.62;29.13;102183.72;4994249;28;45411;-56
2022/01/16 04:22:01;;;;;;;;;26.75;23.00;;;;;20.61;28.96;102191.66;4976240;28;47058;-48
2022/01/16 04:24:26;;;;;;;;;23.50;20.75;;;;;20.60;29.38;102201.34;4993901;27;45423;-47
2022/01/16 04:26:52;;;;;;;;;27.25;24.50;;;;;20.58;28.84;102197.88;4994137;28;45429;-51
2022/01/16 04:29:17;;;;;;;;;21.50;21.25;;;;;20.57;28.78;102206.69;4994248;28;45260;-54
2022/01/16 04:31:42;;;;;;;;;21.75;21.00;;;;;20.53;29.35;102195.41;4976329;28;45516;-49
2022/01/16 04:34:08;;;;;;;;;26.00;24.00;;;;;20.51;29.19;102207.75;4976504;28;45895;-57
2022/01/16 04:36:33;;;;;;;;;24.75;23.00;;;;;20.49;28.90;102220.16;4993932;28;45408;-49
2022/01/16 04:38:59;;;;;;;;;28.25;22.25;;;;;20.47;29.00;102231.63;4994129;28;45553;-51
2022/01/16 04:44:08;;;;;;;;;23.75;22.25;;;;;20.45;29.21;102228.19;4994004;28;45864;-49
2022/01/16 04:46:34;;;;;;;;;20.75;20.75;;;;;20.47;29.46;102223.72;4993668;28;45373;-52
2022/01/16 04:49:01;;;;;;;;;21.75;20.50;;;;;20.48;29.44;102213.16;4976500;28;45585;-50
2022/01/16 04:51:28;;;;;;;;;25.25;18.75;;;;;20.50;29.17;102223.63;4976002;28;46620;-48
2022/01/16 04:53:53;;;;;;;;;22.75;22.75;;;;;20.52;29.44;102213.91;4993576;28;45896;-50
2022/01/16 04:56:19;;;;;;;;;22.00;19.25;;;;;20.53;29.22;102211.22;4993718;27;45372;-47
2022/01/16 04:58:44;;;;;;;;;26.50;22.75;;;;;20.55;29.22;102213.81;4993818;27;45616;-46
2022/01/16 05:01:11;;;;;;;;;27.00;21.25;;;;;20.59;29.28;102223.31;4976179;28;46594;-48
2022/01/16 05:03:37;;;;;;;;;24.00;19.00;;;;;20.61;29.36;102224.13;4993483;28;45959;-46
2022/01/16 05:06:04;;;;;;;;;25.50;19.75;;;;;20.63;29.12;102224.94;4993583;27;45445;-47
2022/01/16 05:08:29;;;;;;;;;23.75;19.00;;;;;20.67;29.60;102236.22;4993589;28;45304;-48
2022/01/16 05:10:57;;;;;;;;;23.25;19.50;;;;;20.69;29.13;102230.00;4993110;28;46648;-49
2022/01/16 05:18:38;;;;;;;;;22.50;21.00;;;;;20.77;29.09;102245.56;4993522;28;45421;-49
2022/01/16 05:21:05;;;;;;;;;23.50;20.75;;;;;20.80;29.46;102250.75;4993263;28;45404;-54
2022/01/16 05:23:30;;;;;;;;;25.00;21.00;;;;;20.82;29.35;102248.06;4993065;27;45871;-50
2022/01/16 05:26:00;;;;;;;;;19.50;18.50;;;;;20.83;29.00;102247.16;4993179;28;45267;-56
2022/01/16 05:28:25;;;;;;;;;23.75;19.50;;;;;20.86;29.24;102254.94;4993187;27;45475;-44
2022/01/16 05:30:50;;;;;;;;;20.75;20.00;;;;;20.87;28.83;102256.69;4975282;28;48147;-54
2022/01/16 05:33:16;;;;;;;;;21.75;21.75;;;;;20.89;29.15;102253.97;4975725;28;45522;-49
2022/01/16 05:35:42;;;;;;;;;20.25;18.25;;;;;20.89;29.08;102265.38;4978946;28;45417;-45
2022/01/16 05:38:08;;;;;;;;;23.50;18.75;;;;;20.93;29.37;102274.06;4996181;28;45361;-56
2022/01/16 05:40:34;;;;;;;;;20.50;18.25;;;;;20.92;29.28;102278.44;4996005;28;46409;-57
2022/01/16 05:42:59;;;;;;;;;18.00;17.00;;;;;20.94;28.72;102286.31;4996002;28;45506;-57
2022/01/16 05:45:25;;;;;;;;;24.00;18.00;;;;;20.93;29.15;102272.25;4995770;27;45331;-55
2022/01/16 05:47:50;;;;;;;;;19.50;17.75;;;;;20.93;28.90;102264.38;4996276;28;45390;-53
2022/01/16 05:50:16;;;;;;;;;22.50;20.50;;;;;20.94;28.65;102252.91;4996192;28;46590;-53
2022/01/16 05:52:42;;;;;;;;;16.50;16.50;;;;;20.94;28.87;102262.59;4996424;27;45265;-56
2022/01/16 05:55:08;;;;;;;;;22.50;19.75;;;;;20.93;29.03;102272.25;4996104;28;45252;-56
2022/01/16 05:57:33;;;;;;;;;22.25;18.75;;;;;20.93;29.23;102281.97;4996032;27;45451;-57
2022/01/16 05:59:59;;;;;;;;;20.00;19.00;;;;;20.92;28.88;102280.25;4995754;28;45491;-59
2022/01/16 06:02:26;;;;;;;;;17.50;17.50;;;;;20.92;29.04;102278.44;4995860;27;45356;-54
2022/01/16 06:04:52;;;;;;;;;18.75;18.50;;;;;20.91;28.92;102271.44;4995811;28;45351;-55
2022/01/16 06:07:17;;;;;;;;;20.50;18.00;;;;;20.90;29.03;102267.09;4996439;27;45667;-48
2022/01/16 06:09:43;;;;;;;;;20.75;18.00;;;;;20.90;28.70;102272.38;4995903;27;46903;-56
2022/01/16 06:12:08;;;;;;;;;21.75;19.75;;;;;20.90;28.76;102272.38;4995727;27;45425;-54
2022/01/16 06:14:34;;;;;;;;;19.25;18.00;;;;;20.89;28.91;102285.59;4995772;28;45437;-47
2022/01/16 06:16:59;;;;;;;;;20.50;16.50;;;;;20.88;29.12;102300.56;4995858;27;45563;-55
2022/01/16 06:19:25;;;;;;;;;20.75;17.75;;;;;20.89;28.54;102298.78;4995510;27;45300;-57
2022/01/16 06:21:50;;;;;;;;;18.50;16.75;;;;;20.86;28.53;102312.94;4995542;27;45292;-47
2022/01/16 06:24:16;;;;;;;;;17.00;15.75;;;;;20.87;28.63;102298.84;4995865;28;45292;-50
2022/01/16 06:26:42;;;;;;;;;18.00;16.00;;;;;20.85;28.74;102308.56;4995678;28;45656;-54
2022/01/16 06:29:08;;;;;;;;;18.00;16.00;;;;;20.83;28.60;102313.03;4995321;27;45428;-54
2022/01/16 06:31:33;;;;;;;;;18.25;16.75;;;;;20.83;28.61;102318.28;4995670;27;45298;-54
2022/01/16 06:34:03;;;;;;;;;16.25;16.25;;;;;20.81;28.80;102306.94;4978045;28;45186;-59
2022/01/16 06:36:29;;;;;;;;;16.75;16.00;;;;;20.79;29.21;102304.38;4995561;28;45489;-58
2022/01/16 06:38:55;;;;;;;;;15.75;14.75;;;;;20.79;29.03;102309.63;4995210;28;45339;-53
2022/01/16 06:41:21;;;;;;;;;17.75;15.75;;;;;20.77;29.02;102308.81;4995181;27;45314;-60
2022/01/16 06:43:46;;;;;;;;;24.50;15.50;;;;;20.76;28.70;102306.25;4995664;28;45296;-57
2022/01/16 06:46:12;;;;;;;;;20.75;16.50;;;;;20.75;29.10;102300.09;4994126;28;45483;-53
2022/01/16 06:48:37;;;;;;;;;23.00;19.25;;;;;20.74;28.79;102308.03;4995082;28;46678;-53
2022/01/16 06:51:03;;;;;;;;;14.75;13.75;;;;;20.73;29.17;102308.94;4995067;28;45236;-51
2022/01/16 06:53:29;;;;;;;;;16.50;13.25;;;;;20.69;29.13;102309.03;4995242;27;45182;-51
2022/01/16 06:55:54;;;;;;;;;16.25;14.75;;;;;20.69;29.17;102321.34;4977676;28;45586;-55
2022/01/16 06:58:20;;;;;;;;;16.00;14.00;;;;;20.67;29.16;102323.16;4994907;28;45456;-50
2022/01/16 07:00:47;;;;;;;;;15.75;14.75;;;;;20.67;28.74;102333.72;4995263;28;45308;-57
2022/01/16 07:03:14;;;;;;;;;15.00;14.00;;;;;20.64;29.09;102339.94;4995149;28;45351;-54
2022/01/16 07:05:39;;;;;;;;;15.00;12.00;;;;;20.63;29.26;102338.22;4993906;28;45506;-57
2022/01/16 07:08:05;;;;;;;;;17.25;15.00;;;;;20.62;29.06;102348.78;4993626;28;48304;-55
2022/01/16 07:10:30;;;;;;;;;14.75;14.75;;;;;20.60;28.73;102364.66;4976844;28;45257;-50
2022/01/16 07:12:56;;;;;;;;;13.50;13.25;;;;;20.58;29.08;102373.53;4994933;28;45434;-55
2022/01/16 07:15:22;;;;;;;;;17.50;15.50;;;;;20.57;29.16;102375.28;4995118;28;45359;-53
2022/01/16 07:17:47;;;;;;;;;19.50;17.75;;;;;20.53;29.19;102371.88;4994995;27;45579;-57
2022/01/16 07:20:14;;;;;;;;;14.50;11.75;;;;;20.52;29.13;102369.31;4994815;28;45307;-53
2022/01/16 07:22:40;;;;;;;;;12.75;12.25;;;;;20.51;28.74;102351.78;4994760;27;45346;-54
2022/01/16 07:25:05;;;;;;;;;14.50;11.00;;;;;20.49;28.91;102359.72;4994812;27;45668;-49
2022/01/16 07:27:31;;;;;;;;;16.75;13.50;;;;;20.48;28.69;102359.75;4977048;28;46129;-53
2022/01/16 07:29:56;;;;;;;;;14.00;13.00;;;;;20.47;29.20;102352.78;4994763;28;45342;-58
2022/01/16 07:32:22;;;;;;;;;12.25;10.50;;;;;20.47;29.44;102332.56;4994758;28;45314;-46
2022/01/16 07:34:47;;;;;;;;;11.25;10.75;;;;;20.49;28.83;102351.84;4995183;27;45356;-52
2022/01/16 07:37:12;;;;;;;;;14.00;12.25;;;;;20.51;29.23;102359.69;4994631;28;45501;-46
2022/01/16 07:39:38;;;;;;;;;14.25;13.25;;;;;20.54;28.82;102372.75;4976885;28;45448;-51
2022/01/16 07:42:04;;;;;;;;;12.75;11.50;;;;;20.55;28.95;102382.38;4977234;28;45455;-53
2022/01/16 07:44:30;;;;;;;;;13.75;11.75;;;;;20.59;29.29;102388.41;4977485;28;45589;-53
2022/01/16 07:46:55;;;;;;;;;12.25;10.50;;;;;20.61;28.84;102381.34;4993299;28;46999;-55
2022/01/16 07:49:21;;;;;;;;;13.25;11.00;;;;;20.62;29.10;102381.28;4994617;28;45256;-60
2022/01/16 07:51:46;;;;;;;;;11.00;11.00;;;;;20.66;28.81;102388.19;4994514;28;45391;-54
2022/01/16 07:54:11;;;;;;;;;12.00;10.50;;;;;20.67;29.05;102392.53;4994548;28;45367;-53
2022/01/16 07:56:37;;;;;;;;;12.50;11.50;;;;;20.69;29.01;102385.44;4993778;28;45732;-53
2022/01/16 07:59:02;;;;;;;;;12.75;12.50;;;;;20.72;29.05;102370.44;4994253;27;45288;-54
2022/01/16 08:01:27;;;;;;;;;12.50;10.50;;;;;20.76;29.01;102358.94;4994497;28;45382;-50
2022/01/16 08:03:53;;;;;;;;;11.25;11.25;;;;;20.77;28.98;102358.03;4994706;28;45251;-52
2022/01/16 08:06:18;;;;;;;;;13.00;12.50;;;;;20.80;28.69;102365.81;4976765;28;47449;-55
2022/01/16 08:08:44;;;;;;;;;13.75;11.00;;;;;20.81;29.22;102365.78;4993920;27;45178;-57
2022/01/16 08:11:10;;;;;;;;;10.25;10.25;;;;;20.83;28.76;102360.47;4994374;28;45346;-57
2022/01/16 08:13:36;;;;;;;;;15.00;12.00;;;;;20.85;29.25;102374.44;4994351;28;45597;-53
2022/01/16 08:16:06;;;;;;;;;10.75;10.00;;;;;20.86;28.80;102370.91;4993982;27;45411;-48
2022/01/16 08:18:31;;;;;;;;;10.00;10.00;;;;;20.88;29.23;102373.47;4994085;27;45866;-57
2022/01/16 08:20:57;;;;;;;;;11.50;11.00;;;;;20.89;29.11;102383.97;4994094;28;45347;-54
2022/01/16 08:23:24;;;;;;;;;15.75;11.75;;;;;20.90;28.56;102383.06;4994556;28;45196;-56
2022/01/16 08:25:50;;;;;;;;;12.25;10.50;;;;;20.91;28.79;102383.94;4994116;28;45404;-56
2022/01/16 08:28:15;;;;;;;;;14.75;10.50;;;;;20.91;28.90;102387.41;4993876;27;45337;-53
2022/01/16 08:30:41;;;;;;;;;10.00;10.00;;;;;20.87;28.48;102385.81;4994104;28;45414;-56
2022/01/16 08:33:06;;;;;;;;;11.00;8.50;;;;;20.90;28.82;102390.97;4994133;28;45549;-58
2022/01/16 08:35:31;;;;;;;;;16.00;12.00;;;;;20.91;28.51;102379.50;4993780;28;46565;-59
2022/01/16 08:37:57;;;;;;;;;9.00;9.00;;;;;20.91;28.56;102379.50;4993762;28;45417;-57
2022/01/16 08:40:22;;;;;;;;;11.00;11.00;;;;;20.91;28.98;102382.16;4976617;28;45491;-62
2022/01/16 08:42:48;;;;;;;;;10.25;9.75;;;;;20.92;28.89;102381.22;4994066;27;45609;-60
2022/01/16 08:45:13;;;;;;;;;10.25;8.75;;;;;20.90;28.79;102377.78;4993655;28;45347;-60
2022/01/16 08:47:39;;;;;;;;;13.50;11.75;;;;;20.89;29.02;102385.75;4993625;28;45489;-57
2022/01/16 08:50:07;;;;;;;;;12.75;10.75;;;;;20.89;28.55;102385.75;4993881;28;45478;-54
2022/01/16 08:52:32;;;;;;;;;14.50;12.50;;;;;20.87;28.85;102383.16;4993759;27;45202;-54
2022/01/16 08:54:58;;;;;;;;;13.25;11.00;;;;;20.85;28.97;102385.00;4993547;28;46405;-54
2022/01/16 08:57:23;;;;;;;;;11.75;10.75;;;;;20.86;28.56;102392.00;4993868;28;45375;-55
2022/01/16 08:59:49;;;;;;;;;9.50;9.50;;;;;20.85;28.65;102395.53;4993627;28;45317;-55
2022/01/16 09:02:14;;;;;;;;;12.25;10.50;;;;;20.84;29.06;102404.34;4993766;28;45203;-54
2022/01/16 09:04:39;;;;;;;;;11.50;10.50;;;;;20.84;28.65;102412.25;4993279;28;45564;-46
2022/01/16 09:07:05;;;;;;;;;12.00;11.50;;;;;20.83;28.91;102421.06;4975542;28;45431;-57
2022/01/16 09:09:31;;;;;;;;;11.50;11.50;;;;;20.82;28.53;102422.84;4995295;28;45964;-51
2022/01/16 09:11:57;;;;;;;;;10.50;9.25;;;;;20.80;28.47;102424.66;4997079;28;45560;-50
2022/01/16 09:14:22;;;;;;;;;10.25;10.00;;;;;20.80;29.10;102421.16;4978917;28;46001;-50
2022/01/16 09:16:48;;;;;;;;;14.00;12.25;;;;;20.79;28.89;102427.31;4996146;28;45430;-56
2022/01/16 09:19:13;;;;;;;;;10.75;9.50;;;;;20.78;28.83;102430.91;4994940;28;45418;-55
2022/01/16 09:21:38;;;;;;;;;12.25;9.00;;;;;20.76;29.18;102432.72;4996470;27;45381;-52
2022/01/16 09:24:04;;;;;;;;;10.00;10.00;;;;;20.76;28.79;102435.34;4996186;28;46052;-55
2022/01/16 09:26:30;;;;;;;;;12.00;10.50;;;;;20.75;29.28;102431.84;4996163;28;45432;-58
2022/01/16 09:28:55;;;;;;;;;14.50;10.00;;;;;20.74;29.29;102439.78;4996597;28;45363;-51
2022/01/16 09:31:20;;;;;;;;;10.00;9.75;;;;;20.70;29.06;102434.59;4996416;28;45584;-52
2022/01/16 09:33:46;;;;;;;;;13.00;10.75;;;;;20.69;28.88;102430.22;4995856;28;45540;-46
2022/01/16 09:36:12;;;;;;;;;12.00;10.50;;;;;20.69;29.25;102443.41;4995955;28;45244;-46
2022/01/16 09:38:38;;;;;;;;;14.00;11.75;;;;;20.68;29.36;102441.66;4996133;27;45299;-47
2022/01/16 09:41:05;;;;;;;;;11.00;10.75;;;;;20.66;28.88;102443.50;4996226;27;45256;-46
2022/01/16 09:43:33;;;;;;;;;11.00;10.00;;;;;20.66;29.27;102442.63;4995946;28;46309;-49
2022/01/16 09:46:00;;;;;;;;;10.50;9.00;;;;;20.64;29.33;102449.72;4995840;28;45398;-47
2022/01/16 09:48:25;;;;;;;;;8.25;8.25;;;;;20.60;29.15;102448.09;4996445;28;45259;-45
2022/01/16 09:50:51;;;;;;;;;10.25;9.50;;;;;20.60;29.33;102448.94;4996102;28;46074;-44
2022/01/16 09:53:16;;;;;;;;;9.50;9.00;;;;;20.60;28.77;102448.94;4995777;28;45432;-56
2022/01/16 09:55:42;;;;;;;;;9.25;8.75;;;;;20.59;29.09;102443.75;4995783;27;45315;-52
2022/01/16 09:58:07;;;;;;;;;12.50;10.25;;;;;20.58;29.11;102455.19;4995887;28;45295;-49
2022/01/16 10:00:33;;;;;;;;;13.00;11.50;;;;;20.54;28.83;102454.41;4996071;28;45594;-45
2022/01/16 10:02:58;;;;;;;;;9.50;9.50;;;;;20.54;29.09;102457.06;4996141;28;45262;-45
2022/01/16 10:05:36;;;;;;;;;12.25;10.50;;;;;20.52;29.17;102454.44;4978370;28;46298;-49
2022/01/16 10:08:08;;;;;;;;;10.00;10.00;;;;;20.52;29.48;102449.16;4996143;28;45317;-47
2022/01/16 10:10:39;;;;;;;;;10.25;9.00;;;;;20.52;29.42;102450.97;4995836;28;45484;-51
2022/01/16 10:13:22;;;;;;;;;9.25;9.25;;;;;20.49;29.18;102440.50;4995497;28;46108;-52
2022/01/16 10:15:56;;;;;;;;;12.00;11.75;;;;;20.49;29.08;102446.66;4977699;28;45449;-48
2022/01/16 10:18:39;;;;;;;;;10.25;9.00;;;;;20.48;29.18;102444.91;4995547;28;45441;-58
2022/01/16 10:21:06;;;;;;;;;10.50;7.00;;;;;20.47;28.96;102451.09;4995775;28;45319;-54
2022/01/16 10:23:39;;;;;;;;;11.50;10.00;;;;;20.46;29.54;102454.63;4995251;28;46175;-48
2022/01/16 10:26:04;;;;;;;;;11.00;10.50;;;;;20.43;29.26;102452.09;4995279;28;45387;-57
2022/01/16 10:28:30;;;;;;;;;11.50;9.00;;;;;20.42;29.43;102454.78;4995803;27;45421;-58
2022/01/16 10:30:58;;;;;;;;;11.00;11.00;;;;;20.41;29.57;102460.94;4995779;27;45383;-52
2022/01/16 10:33:26;;;;;;;;;11.00;10.00;;;;;20.39;29.55;102456.59;4995267;27;45585;-53
2022/01/16 10:35:53;;;;;;;;;10.00;10.00;;;;;20.38;29.61;102448.75;4995194;28;45398;-59
2022/01/16 10:38:26;;;;;;;;;11.00;10.00;;;;;20.37;29.25;102447.00;4995353;27;45338;-58
2022/01/16 10:40:54;;;;;;;;;10.25;10.25;;;;;20.34;29.23;102447.09;4995515;28;45281;-59
2022/01/16 10:43:35;;;;;;;;;10.50;10.00;;;;;20.33;29.43;102453.25;4995150;27;45583;-55
2022/01/16 10:46:01;;;;;;;;;10.75;10.00;;;;;20.32;29.75;102449.78;4995487;28;45694;-59
2022/01/16 10:48:26;;;;;;;;;10.75;10.00;;;;;20.31;29.63;102457.69;4995273;28;45395;-57
2022/01/16 10:50:52;;;;;;;;;8.25;7.25;;;;;20.35;29.35;102454.94;4977760;28;45569;-57
2022/01/16 10:53:22;;;;;;;;;8.75;8.75;;;;;20.36;29.36;102458.44;4994860;28;45405;-56
2022/01/16 10:56:02;;;;;;;;;14.25;11.00;;;;;20.38;29.50;102452.22;4977282;28;45901;-60
2022/01/16 10:58:29;;;;;;;;;9.75;8.75;;;;;20.42;29.36;102455.63;4995604;28;45351;-60
2022/01/16 11:01:03;;;;;;;;;13.00;12.00;;;;;20.46;29.97;102451.13;4995214;28;45331;-59
2022/01/16 11:03:38;;;;;;;;;10.25;9.25;;;;;20.48;29.90;102447.56;4978367;28;47128;-58
2022/01/16 11:06:03;;;;;;;;;9.00;7.75;;;;;20.51;29.78;102446.59;4995103;28;45257;-55
2022/01/16 11:08:29;;;;;;;;;12.00;9.75;;;;;20.55;29.76;102451.72;4995366;28;45352;-60
2022/01/16 11:10:56;;;;;;;;;10.75;8.50;;;;;20.60;29.42;102448.94;4995316;27;45563;-57
2022/01/16 11:13:29;;;;;;;;;8.75;7.75;;;;;20.61;29.78;102445.41;4994725;28;46624;-58
2022/01/16 11:15:58;;;;;;;;;11.00;11.00;;;;;20.65;29.74;102451.44;4994933;28;45447;-60
2022/01/16 11:18:25;;;;;;;;;9.50;8.75;;;;;20.68;29.50;102457.47;4994865;27;45443;-55
2022/01/16 11:20:56;;;;;;;;;8.00;8.00;;;;;20.71;29.65;102451.28;4994657;28;45288;-51
2022/01/16 11:26:02;;;;;;;;;8.00;8.00;;;;;20.75;29.08;102450.28;4994880;27;45812;-56
2022/01/16 11:28:28;;;;;;;;;9.25;9.00;;;;;20.78;29.59;102452.00;4995052;28;45206;-57
2022/01/16 11:30:57;;;;;;;;;10.75;10.50;;;;;20.79;29.65;102457.19;4994289;28;46010;-55
2022/01/16 11:33:24;;;;;;;;;10.50;9.25;;;;;20.80;28.96;102455.41;4994741;28;45394;-59
2022/01/16 11:35:54;;;;;;;;;5.75;5.75;;;;;20.82;28.95;102454.47;4994581;28;45174;-58
2022/01/16 11:38:21;;;;;;;;;9.25;9.25;;;;;20.82;29.05;102449.19;4994760;27;45462;-54
2022/01/16 11:40:49;;;;;;;;;11.00;9.00;;;;;20.83;29.44;102439.50;4994899;28;45339;-52
2022/01/16 11:43:37;;;;;;;;;10.00;8.75;;;;;20.83;29.25;102443.03;4994319;27;46492;-56
2022/01/16 11:46:10;;;;;;;;;10.25;8.75;;;;;20.86;29.23;102449.97;4994514;28;45736;-53
2022/01/16 11:48:38;;;;;;;;;9.00;7.25;;;;;20.85;29.17;102461.41;4994596;28;45402;-50
2022/01/16 11:51:05;;;;;;;;;7.25;7.25;;;;;20.87;29.42;102466.63;4995111;28;45489;-54
2022/01/16 11:53:52;;;;;;;;;8.75;7.50;;;;;20.88;28.96;102466.59;4994688;27;45260;-57
2022/01/16 11:56:40;;;;;;;;;8.00;8.00;;;;;20.88;29.33;102457.81;4994291;27;45998;-56
2022/01/16 11:59:26;;;;;;;;;8.50;8.50;;;;;20.89;28.96;102459.53;4994704;27;45293;-56
2022/01/16 12:01:55;;;;;;;;;8.25;8.25;;;;;20.87;29.13;102456.97;4976962;28;45372;-46
2022/01/16 12:04:47;;;;;;;;;7.50;7.00;;;;;20.86;29.11;102449.97;4994290;28;45684;-51
2022/01/16 12:07:12;;;;;;;;;8.50;8.50;;;;;20.87;29.13;102450.81;4990364;28;45959;-51